Time,TemperatureF,DewpointF,PressureIn,WindDirection,WindDirectionDegrees,WindSpeedMPH,WindSpeedGustMPH,Humidity,HourlyPrecipIn,Conditions,Clouds,dailyrainin,SoftwareType,DateUTC
2013-04-20 00:03:00,64.0,61.0,29.71,West,267,0.0,1.0,90,0.01,,,0.16,,2013-04-20 04:03:00,
2013-04-20 00:12:00,64.0,61.0,29.71,West,267,0.0,1.0,90,0.01,,,0.16,,2013-04-20 04:12:00,
2013-04-20 00:23:00,64.0,61.0,29.71,NW,313,0.0,3.0,89,0.01,,,0.16,,2013-04-20 04:23:00,
2013-04-20 00:33:00,63.0,60.0,29.72,NW,309,0.0,1.0,89,0.00,,,0.16,,2013-04-20 04:33:00,
2013-04-20 00:42:00,63.0,60.0,29.72,NW,309,0.0,1.0,89,0.00,,,0.16,,2013-04-20 04:42:00,
2013-04-20 00:52:00,63.0,60.0,29.74,South,191,0.0,2.0,89,0.00,,,0.16,,2013-04-20 04:52:00,
2013-04-20 01:02:00,62.0,58.0,29.77,West,265,1.0,5.0,86,0.00,,,0.16,,2013-04-20 05:02:00,
2013-04-20 01:12:00,62.0,58.0,29.77,West,265,1.0,5.0,86,0.00,,,0.16,,2013-04-20 05:12:00,
2013-04-20 01:22:00,60.0,55.0,29.77,West,275,0.0,2.0,84,0.00,,,0.16,,2013-04-20 05:22:00,
2013-04-20 01:32:00,59.0,54.0,29.77,West,263,0.0,3.0,83,0.00,,,0.16,,2013-04-20 05:32:00,
2013-04-20 01:43:00,59.0,54.0,29.77,West,263,0.0,3.0,83,0.00,,,0.16,,2013-04-20 05:43:00,
2013-04-20 01:52:00,57.0,53.0,29.78,West,263,0.0,1.0,85,0.00,,,0.16,,2013-04-20 05:52:00,
2013-04-20 02:02:00,57.0,53.0,29.78,West,263,0.0,3.0,86,0.00,,,0.16,,2013-04-20 06:02:00,
2013-04-20 02:12:00,57.0,53.0,29.78,West,263,0.0,3.0,86,0.00,,,0.16,,2013-04-20 06:12:00,
2013-04-20 02:21:00,56.0,52.0,29.79,West,263,0.0,2.0,86,0.00,,,0.16,,2013-04-20 06:21:00,
2013-04-20 02:32:00,56.0,52.0,29.80,West,263,0.0,1.0,86,0.00,,,0.16,,2013-04-20 06:32:00,
2013-04-20 02:42:00,56.0,52.0,29.80,West,263,0.0,1.0,86,0.00,,,0.16,,2013-04-20 06:42:00,
2013-04-20 02:52:00,55.0,51.0,29.79,West,263,0.0,1.0,86,0.01,,,0.17,,2013-04-20 06:52:00,
2013-04-20 03:02:00,55.0,50.0,29.80,West,263,0.0,2.0,84,0.01,,,0.17,,2013-04-20 07:02:00,
2013-04-20 03:11:00,55.0,50.0,29.80,West,263,0.0,2.0,84,0.01,,,0.17,,2013-04-20 07:11:00,
2013-04-20 03:22:00,54.0,49.0,29.80,West,263,0.0,1.0,83,0.01,,,0.17,,2013-04-20 07:22:00,
2013-04-20 03:32:00,54.0,48.0,29.82,West,273,0.0,3.0,81,0.01,,,0.17,,2013-04-20 07:32:00,
2013-04-20 03:42:00,53.0,46.0,29.84,West,275,0.0,4.0,77,0.00,,,0.17,,2013-04-20 07:42:00,
2013-04-20 03:52:00,53.0,46.0,29.84,West,275,0.0,4.0,77,0.00,,,0.17,,2013-04-20 07:52:00,
2013-04-20 04:02:00,53.0,46.0,29.85,West,275,0.0,2.0,78,0.00,,,0.17,,2013-04-20 08:02:00,
2013-04-20 04:11:00,53.0,46.0,29.85,West,275,0.0,2.0,78,0.00,,,0.17,,2013-04-20 08:11:00,
2013-04-20 04:21:00,52.0,44.0,29.85,West,271,1.0,4.0,74,0.00,,,0.17,,2013-04-20 08:21:00,
2013-04-20 04:32:00,52.0,45.0,29.85,South,181,0.0,3.0,77,0.00,,,0.17,,2013-04-20 08:32:00,
2013-04-20 04:42:00,52.0,45.0,29.85,South,181,0.0,3.0,77,0.00,,,0.17,,2013-04-20 08:42:00,
2013-04-20 04:52:00,51.0,41.0,29.86,West,275,0.0,4.0,68,0.00,,,0.17,,2013-04-20 08:52:00,
2013-04-20 05:02:00,51.0,41.0,29.87,West,274,0.0,3.0,69,0.00,,,0.17,,2013-04-20 09:02:00,
2013-04-20 05:12:00,51.0,41.0,29.87,West,274,0.0,3.0,69,0.00,,,0.17,,2013-04-20 09:12:00,
2013-04-20 05:21:00,50.0,40.0,29.88,West,273,0.0,3.0,68,0.00,,,0.17,,2013-04-20 09:21:00,
2013-04-20 05:33:00,50.0,39.0,29.88,West,273,0.0,3.0,67,0.00,,,0.17,,2013-04-20 09:33:00,
2013-04-20 05:43:00,50.0,39.0,29.88,West,273,0.0,3.0,67,0.00,,,0.17,,2013-04-20 09:43:00,
2013-04-20 05:53:00,49.0,37.0,29.89,West,275,1.0,6.0,63,0.00,,,0.17,,2013-04-20 09:53:00,
2013-04-20 06:03:00,49.0,36.0,29.90,West,269,1.0,5.0,61,0.00,,,0.17,,2013-04-20 10:03:00,
2013-04-20 06:13:00,49.0,36.0,29.90,West,269,1.0,5.0,61,0.00,,,0.17,,2013-04-20 10:13:00,
2013-04-20 06:23:00,49.0,36.0,29.91,West,265,0.0,3.0,60,0.00,,,0.17,,2013-04-20 10:23:00,
2013-04-20 06:33:00,48.0,35.0,29.91,West,272,0.0,3.0,61,0.00,,,0.17,,2013-04-20 10:33:00,
2013-04-20 06:42:00,48.0,35.0,29.91,West,272,0.0,3.0,61,0.00,,,0.17,,2013-04-20 10:42:00,
2013-04-20 06:52:00,48.0,36.0,29.92,West,272,0.0,2.0,63,0.00,,,0.17,,2013-04-20 10:52:00,
2013-04-20 07:02:00,47.0,36.0,29.93,West,272,0.0,1.0,65,0.00,,,0.17,,2013-04-20 11:02:00,
2013-04-20 07:12:00,47.0,36.0,29.93,West,272,0.0,1.0,65,0.00,,,0.17,,2013-04-20 11:12:00,
2013-04-20 07:23:00,47.0,37.0,29.94,West,272,0.0,0.0,67,0.00,,,0.17,,2013-04-20 11:23:00,
2013-04-20 07:32:00,47.0,38.0,29.95,West,272,0.0,0.0,71,0.00,,,0.17,,2013-04-20 11:32:00,
2013-04-20 07:42:00,47.0,38.0,29.95,West,272,0.0,0.0,71,0.00,,,0.17,,2013-04-20 11:42:00,
2013-04-20 07:52:00,46.0,38.0,29.96,West,272,0.0,1.0,74,0.00,,,0.17,,2013-04-20 11:52:00,
2013-04-20 08:02:00,46.0,36.0,29.98,West,272,0.0,0.0,69,0.00,,,0.17,,2013-04-20 12:02:00,
2013-04-20 08:11:00,46.0,36.0,29.98,West,272,0.0,0.0,69,0.00,,,0.17,,2013-04-20 12:11:00,
2013-04-20 08:22:00,47.0,37.0,29.99,West,276,0.0,3.0,68,0.00,,,0.17,,2013-04-20 12:22:00,
2013-04-20 08:32:00,47.0,35.0,29.99,West,277,1.0,3.0,62,0.00,,,0.17,,2013-04-20 12:32:00,
2013-04-20 08:42:00,47.0,35.0,29.99,West,277,1.0,3.0,62,0.00,,,0.17,,2013-04-20 12:42:00,
2013-04-20 08:52:00,47.0,34.0,30.01,SSW,194,1.0,4.0,60,0.00,,,0.17,,2013-04-20 12:52:00,
2013-04-20 09:02:00,47.0,33.0,30.01,West,275,1.0,3.0,58,0.00,,,0.17,,2013-04-20 13:02:00,
2013-04-20 09:11:00,47.0,33.0,30.01,West,275,1.0,3.0,58,0.00,,,0.17,,2013-04-20 13:11:00,
2013-04-20 09:21:00,47.0,35.0,30.02,West,275,0.0,2.0,62,0.00,,,0.17,,2013-04-20 13:21:00,
2013-04-20 09:32:00,47.0,35.0,30.02,West,261,0.0,2.0,62,0.00,,,0.17,,2013-04-20 13:32:00,
2013-04-20 09:42:00,47.0,35.0,30.02,West,261,0.0,2.0,62,0.00,,,0.17,,2013-04-20 13:42:00,
2013-04-20 09:52:00,47.0,34.0,30.03,West,263,1.0,3.0,60,0.00,,,0.17,,2013-04-20 13:52:00,
2013-04-20 10:02:00,48.0,35.0,30.03,South,188,1.0,2.0,61,0.00,,,0.17,,2013-04-20 14:02:00,
2013-04-20 10:11:00,48.0,35.0,30.03,South,188,1.0,2.0,61,0.00,,,0.17,,2013-04-20 14:11:00,
2013-04-20 10:21:00,50.0,34.0,30.03,West,270,0.0,4.0,53,0.00,,,0.17,,2013-04-20 14:21:00,
2013-04-20 10:32:00,51.0,34.0,30.04,West,273,0.0,2.0,53,0.01,,,0.18,,2013-04-20 14:32:00,
2013-04-20 10:42:00,51.0,34.0,30.04,West,273,0.0,2.0,53,0.01,,,0.18,,2013-04-20 14:42:00,
2013-04-20 10:51:00,51.0,32.0,30.05,West,271,1.0,5.0,48,0.01,,,0.18,,2013-04-20 14:51:00,
2013-04-20 11:02:00,52.0,32.0,30.06,WNW,283,0.0,3.0,46,0.01,,,0.18,,2013-04-20 15:02:00,
2013-04-20 11:12:00,52.0,32.0,30.06,WNW,283,0.0,3.0,46,0.01,,,0.18,,2013-04-20 15:12:00,
2013-04-20 11:21:00,52.0,32.0,30.06,SW,221,0.0,4.0,46,0.01,,,0.18,,2013-04-20 15:21:00,
2013-04-20 11:33:00,53.0,31.0,30.07,WNW,288,1.0,5.0,43,0.00,,,0.18,,2013-04-20 15:33:00,
2013-04-20 11:43:00,53.0,31.0,30.07,WNW,288,1.0,5.0,43,0.00,,,0.18,,2013-04-20 15:43:00,
2013-04-20 11:53:00,54.0,31.0,30.06,SW,219,1.0,4.0,41,0.00,,,0.18,,2013-04-20 15:53:00,
2013-04-20 12:03:00,55.0,35.0,30.06,West,263,0.0,5.0,47,0.00,,,0.18,,2013-04-20 16:03:00,
2013-04-20 12:12:00,55.0,35.0,30.06,West,270,1.0,6.0,47,0.00,,,0.18,,2013-04-20 16:12:00,
2013-04-20 12:23:00,55.0,35.0,30.06,West,270,1.0,6.0,47,0.00,,,0.18,,2013-04-20 16:23:00,
2013-04-20 12:33:00,55.0,31.0,30.06,WSW,248,0.0,5.0,40,0.00,,,0.18,,2013-04-20 16:33:00,
2013-04-20 12:42:00,55.0,31.0,30.06,WSW,248,0.0,5.0,40,0.00,,,0.18,,2013-04-20 16:42:00,
2013-04-20 12:52:00,55.0,28.0,30.06,West,265,2.0,4.0,35,0.00,,,0.18,,2013-04-20 16:52:00,
2013-04-20 13:02:00,56.0,31.0,30.06,ESE,123,1.0,5.0,39,0.00,,,0.18,,2013-04-20 17:02:00,
2013-04-20 13:12:00,56.0,31.0,30.06,ESE,123,1.0,5.0,39,0.00,,,0.18,,2013-04-20 17:12:00,
2013-04-20 13:23:00,57.0,32.0,30.05,WNW,294,0.0,3.0,39,0.00,,,0.18,,2013-04-20 17:23:00,
2013-04-20 13:33:00,57.0,32.0,30.05,South,189,0.0,3.0,38,0.00,,,0.18,,2013-04-20 17:33:00,
2013-04-20 13:42:00,57.0,32.0,30.05,South,189,0.0,3.0,38,0.00,,,0.18,,2013-04-20 17:42:00,
2013-04-20 13:52:00,58.0,32.0,30.05,WNW,292,2.0,6.0,37,0.00,,,0.18,,2013-04-20 17:52:00,
2013-04-20 14:02:00,59.0,31.0,30.05,West,278,0.0,5.0,35,0.00,,,0.18,,2013-04-20 18:02:00,
2013-04-20 14:13:00,59.0,33.0,30.05,West,275,1.0,4.0,37,0.00,,,0.18,,2013-04-20 18:13:00,
2013-04-20 14:22:00,59.0,33.0,30.05,West,275,1.0,4.0,37,0.00,,,0.18,,2013-04-20 18:22:00,
2013-04-20 14:32:00,59.0,33.0,30.05,NW,316,0.0,3.0,38,0.00,,,0.18,,2013-04-20 18:32:00,
2013-04-20 14:42:00,59.0,33.0,30.05,NW,316,0.0,3.0,38,0.00,,,0.18,,2013-04-20 18:42:00,
2013-04-20 14:52:00,59.0,31.0,30.04,SE,143,1.0,4.0,35,0.00,,,0.18,,2013-04-20 18:52:00,
2013-04-20 15:02:00,60.0,31.0,30.04,West,279,1.0,6.0,33,0.00,,,0.18,,2013-04-20 19:02:00,
2013-04-20 15:11:00,60.0,31.0,30.04,WSW,248,0.0,4.0,33,0.00,,,0.18,,2013-04-20 19:11:00,
2013-04-20 15:21:00,60.0,31.0,30.04,WSW,248,0.0,4.0,33,0.00,,,0.18,,2013-04-20 19:21:00,
2013-04-20 15:32:00,61.0,32.0,30.04,WSW,248,0.0,5.0,33,0.01,,,0.19,,2013-04-20 19:32:00,
2013-04-20 15:42:00,61.0,30.0,30.03,West,260,0.0,3.0,31,0.01,,,0.19,,2013-04-20 19:42:00,
2013-04-20 15:52:00,61.0,30.0,30.03,West,260,0.0,3.0,31,0.01,,,0.19,,2013-04-20 19:52:00,
2013-04-20 16:02:00,62.0,34.0,30.03,South,175,0.0,3.0,35,0.01,,,0.19,,2013-04-20 20:02:00,
2013-04-20 16:12:00,62.0,33.0,30.03,West,276,1.0,4.0,34,0.01,,,0.19,,2013-04-20 20:12:00,
2013-04-20 16:22:00,62.0,33.0,30.03,West,276,1.0,4.0,34,0.01,,,0.19,,2013-04-20 20:22:00,
2013-04-20 16:32:00,62.0,32.0,30.03,West,279,1.0,5.0,32,0.00,,,0.19,,2013-04-20 20:32:00,
2013-04-20 16:42:00,62.0,32.0,30.03,West,279,1.0,5.0,32,0.00,,,0.19,,2013-04-20 20:42:00,
2013-04-20 16:52:00,61.0,32.0,30.03,South,173,0.0,4.0,33,0.00,,,0.19,,2013-04-20 20:52:00,
2013-04-20 17:02:00,62.0,33.0,30.03,WNW,290,1.0,3.0,34,0.00,,,0.19,,2013-04-20 21:02:00,
2013-04-20 17:12:00,62.0,33.0,30.03,WNW,290,1.0,3.0,34,0.00,,,0.19,,2013-04-20 21:12:00,
2013-04-20 17:22:00,61.0,30.0,30.03,NNW,338,0.0,3.0,31,0.00,,,0.19,,2013-04-20 21:22:00,
2013-04-20 17:33:00,61.0,27.0,30.03,West,270,1.0,4.0,27,0.00,,,0.12,,2013-04-20 21:33:00,
2013-04-20 17:43:00,61.0,27.0,30.03,West,270,1.0,4.0,27,0.00,,,0.12,,2013-04-20 21:43:00,
2013-04-20 17:52:00,61.0,29.0,30.04,West,280,0.0,4.0,30,0.01,,,0.13,,2013-04-20 21:52:00,
2013-04-20 18:03:00,61.0,30.0,30.04,WNW,283,1.0,3.0,31,0.80,,,0.92,,2013-04-20 22:03:00,
2013-04-20 18:13:00,61.0,30.0,30.04,WNW,283,1.0,3.0,31,0.80,,,0.92,,2013-04-20 22:13:00,
2013-04-20 18:23:00,60.0,32.0,30.05,West,270,0.0,3.0,35,0.80,,,0.92,,2013-04-20 22:23:00,
2013-04-20 18:32:00,60.0,28.0,30.06,SW,219,0.0,3.0,29,0.80,,,0.89,,2013-04-20 22:32:00,
2013-04-20 18:42:00,60.0,28.0,30.06,SW,219,0.0,3.0,29,0.80,,,0.89,,2013-04-20 22:42:00,
2013-04-20 18:52:00,60.0,32.0,30.06,SSW,194,0.0,1.0,34,0.79,,,0.89,,2013-04-20 22:52:00,
2013-04-20 19:02:00,59.0,32.0,30.07,SSW,194,0.0,0.0,36,0.00,,,0.89,,2013-04-20 23:02:00,
2013-04-20 19:12:00,59.0,32.0,30.07,SSW,194,0.0,0.0,36,0.00,,,0.89,,2013-04-20 23:12:00,
2013-04-20 19:22:00,59.0,33.0,30.07,SSW,194,0.0,0.0,37,0.00,,,0.89,,2013-04-20 23:22:00,
2013-04-20 19:32:00,58.0,33.0,30.07,SSW,194,0.0,0.0,38,0.00,,,0.87,,2013-04-20 23:32:00,
2013-04-20 19:42:00,58.0,33.0,30.07,SSW,194,0.0,0.0,38,0.00,,,0.87,,2013-04-20 23:42:00,
2013-04-20 19:52:00,57.0,35.0,30.07,SSW,194,0.0,0.0,44,0.00,,,0.87,,2013-04-20 23:52:00,
2013-04-20 20:01:00,56.0,37.0,30.08,SSW,194,0.0,0.0,49,0.00,,,0.87,,2013-04-21 00:01:00,
2013-04-20 20:12:00,56.0,37.0,30.08,SSW,194,0.0,0.0,49,0.00,,,0.87,,2013-04-21 00:12:00,
2013-04-20 20:22:00,54.0,40.0,30.09,SSW,194,0.0,0.0,58,0.00,,,0.87,,2013-04-21 00:22:00,
2013-04-20 20:32:00,53.0,41.0,30.10,SSW,194,0.0,0.0,64,0.00,,,0.85,,2013-04-21 00:32:00,
2013-04-20 20:42:00,53.0,41.0,30.10,SSW,194,0.0,0.0,64,0.00,,,0.85,,2013-04-21 00:42:00,
2013-04-20 20:52:00,52.0,41.0,30.11,SSW,194,0.0,0.0,67,0.00,,,0.85,,2013-04-21 00:52:00,
2013-04-20 21:01:00,50.0,41.0,30.13,SSW,194,0.0,0.0,71,0.00,,,0.85,,2013-04-21 01:01:00,
2013-04-20 21:12:00,50.0,41.0,30.13,SSW,194,0.0,0.0,71,0.00,,,0.85,,2013-04-21 01:12:00,
2013-04-20 21:21:00,49.0,41.0,30.14,SSW,194,0.0,0.0,74,0.00,,,0.85,,2013-04-21 01:21:00,
2013-04-20 21:32:00,48.0,41.0,30.15,SSW,194,0.0,0.0,76,0.00,,,0.84,,2013-04-21 01:32:00,
2013-04-20 21:42:00,48.0,41.0,30.15,SSW,194,0.0,0.0,76,0.00,,,0.84,,2013-04-21 01:42:00,
2013-04-20 21:52:00,48.0,41.0,30.16,SSW,194,0.0,0.0,76,0.00,,,0.84,,2013-04-21 01:52:00,
2013-04-20 22:02:00,47.0,40.0,30.16,SSW,194,0.0,0.0,77,0.00,,,0.84,,2013-04-21 02:02:00,
2013-04-20 22:11:00,47.0,40.0,30.16,SSW,194,0.0,0.0,77,0.00,,,0.84,,2013-04-21 02:11:00,
2013-04-20 22:22:00,47.0,41.0,30.17,SSW,194,0.0,0.0,79,0.00,,,0.84,,2013-04-21 02:22:00,
2013-04-20 22:32:00,46.0,40.0,30.17,SSW,194,0.0,0.0,80,0.00,,,0.84,,2013-04-21 02:32:00,
2013-04-20 22:42:00,46.0,40.0,30.17,SSW,194,0.0,0.0,80,0.00,,,0.84,,2013-04-21 02:42:00,
2013-04-20 22:52:00,45.0,40.0,30.17,SSW,194,0.0,0.0,81,0.00,,,0.84,,2013-04-21 02:52:00,
2013-04-20 23:01:00,45.0,40.0,30.18,SSW,194,0.0,0.0,82,0.00,,,0.84,,2013-04-21 03:01:00,
2013-04-20 23:11:00,45.0,40.0,30.18,SSW,194,0.0,0.0,82,0.00,,,0.84,,2013-04-21 03:11:00,
2013-04-20 23:22:00,44.0,39.0,30.18,SSW,194,0.0,0.0,81,0.00,,,0.84,,2013-04-21 03:22:00,
2013-04-20 23:33:00,44.0,39.0,30.18,SSW,194,0.0,0.0,82,0.00,,,0.83,,2013-04-21 03:33:00,
2013-04-20 23:42:00,44.0,39.0,30.18,SSW,194,0.0,0.0,82,0.00,,,0.83,,2013-04-21 03:42:00,
2013-04-20 23:52:00,44.0,39.0,30.19,SSW,194,0.0,0.0,82,0.00,,,0.83,,2013-04-21 03:52:00,